sensor_id;sensor_type;location;lat;lon;timestamp;P1;durP1;ratioP1;P2;durP2;ratioP2
15256;SDS011;7731;50.720;6.912;2023-10-31T00:01:40;0.90;;;0.90;;
15256;SDS011;7731;50.720;6.912;2023-10-31T00:04:10;1.10;;;1.00;;
15256;SDS011;7731;50.720;6.912;2023-10-31T00:06:43;1.00;;;1.00;;
15256;SDS011;7731;50.720;6.912;2023-10-31T00:09:13;1.83;;;1.00;;
15256;SDS011;7731;50.720;6.912;2023-10-31T00:11:44;1.10;;;1.00;;
15256;SDS011;7731;50.720;6.912;2023-10-31T00:14:17;1.20;;;1.00;;
15256;SDS011;7731;50.720;6.912;2023-10-31T00:16:56;1.25;;;1.15;;
15256;SDS011;7731;50.720;6.912;2023-10-31T00:19:27;2.97;;;1.60;;
15256;SDS011;7731;50.720;6.912;2023-10-31T00:21:59;1.63;;;1.05;;
15256;SDS011;7731;50.720;6.912;2023-10-31T00:24:30;1.90;;;1.60;;
15256;SDS011;7731;50.720;6.912;2023-10-31T00:27:00;1.88;;;1.50;;
15256;SDS011;7731;50.720;6.912;2023-10-31T00:29:33;2.65;;;1.50;;
15256;SDS011;7731;50.720;6.912;2023-10-31T00:32:03;1.77;;;1.40;;
15256;SDS011;7731;50.720;6.912;2023-10-31T00:34:36;2.38;;;1.30;;
15256;SDS011;7731;50.720;6.912;2023-10-31T00:37:07;1.65;;;1.10;;
15256;SDS011;7731;50.720;6.912;2023-10-31T00:39:37;1.20;;;1.10;;
15256;SDS011;7731;50.720;6.912;2023-10-31T00:42:07;1.27;;;1.00;;
15256;SDS011;7731;50.720;6.912;2023-10-31T00:44:40;1.15;;;1.08;;
15256;SDS011;7731;50.720;6.912;2023-10-31T00:47:11;1.27;;;1.10;;
15256;SDS011;7731;50.720;6.912;2023-10-31T00:49:42;1.02;;;0.95;;
15256;SDS011;7731;50.720;6.912;2023-10-31T00:52:12;1.58;;;0.90;;
15256;SDS011;7731;50.720;6.912;2023-10-31T00:54:43;0.85;;;0.85;;
15256;SDS011;7731;50.720;6.912;2023-10-31T00:57:13;0.93;;;0.70;;
15256;SDS011;7731;50.720;6.912;2023-10-31T00:59:46;0.95;;;0.75;;
15256;SDS011;7731;50.720;6.912;2023-10-31T01:02:18;0.80;;;0.80;;
15256;SDS011;7731;50.720;6.912;2023-10-31T01:04:49;1.42;;;0.60;;
15256;SDS011;7731;50.720;6.912;2023-10-31T01:07:19;0.57;;;0.57;;
15256;SDS011;7731;50.720;6.912;2023-10-31T01:09:49;0.60;;;0.60;;
15256;SDS011;7731;50.720;6.912;2023-10-31T01:12:22;0.75;;;0.70;;
15256;SDS011;7731;50.720;6.912;2023-10-31T01:14:56;1.67;;;0.82;;
15256;SDS011;7731;50.720;6.912;2023-10-31T01:17:29;1.25;;;0.90;;
15256;SDS011;7731;50.720;6.912;2023-10-31T01:20:00;1.33;;;0.68;;
15256;SDS011;7731;50.720;6.912;2023-10-31T01:22:32;1.23;;;0.70;;
15256;SDS011;7731;50.720;6.912;2023-10-31T01:25:02;1.75;;;0.77;;
15256;SDS011;7731;50.720;6.912;2023-10-31T01:27:34;1.95;;;0.90;;
15256;SDS011;7731;50.720;6.912;2023-10-31T01:30:07;2.35;;;0.90;;
15256;SDS011;7731;50.720;6.912;2023-10-31T01:32:40;0.95;;;0.70;;
15256;SDS011;7731;50.720;6.912;2023-10-31T01:35:11;2.58;;;1.42;;
15256;SDS011;7731;50.720;6.912;2023-10-31T01:37:41;0.90;;;0.80;;
15256;SDS011;7731;50.720;6.912;2023-10-31T01:40:12;1.08;;;0.80;;
15256;SDS011;7731;50.720;6.912;2023-10-31T01:42:43;1.55;;;0.93;;
15256;SDS011;7731;50.720;6.912;2023-10-31T01:45:18;2.05;;;0.93;;
15256;SDS011;7731;50.720;6.912;2023-10-31T01:47:51;2.95;;;1.00;;
15256;SDS011;7731;50.720;6.912;2023-10-31T01:50:22;3.83;;;1.20;;
15256;SDS011;7731;50.720;6.912;2023-10-31T01:52:56;2.42;;;1.00;;
15256;SDS011;7731;50.720;6.912;2023-10-31T01:55:27;1.95;;;1.00;;
15256;SDS011;7731;50.720;6.912;2023-10-31T01:57:59;1.50;;;1.05;;
15256;SDS011;7731;50.720;6.912;2023-10-31T02:00:35;1.77;;;0.82;;
15256;SDS011;7731;50.720;6.912;2023-10-31T02:03:15;3.13;;;1.17;;
15256;SDS011;7731;50.720;6.912;2023-10-31T02:05:47;2.67;;;1.10;;
15256;SDS011;7731;50.720;6.912;2023-10-31T02:08:17;3.00;;;1.20;;
15256;SDS011;7731;50.720;6.912;2023-10-31T02:13:37;2.92;;;1.00;;
15256;SDS011;7731;50.720;6.912;2023-10-31T02:16:10;2.50;;;0.90;;
15256;SDS011;7731;50.720;6.912;2023-10-31T02:18:40;4.88;;;1.30;;
15256;SDS011;7731;50.720;6.912;2023-10-31T02:21:11;3.00;;;1.42;;
15256;SDS011;7731;50.720;6.912;2023-10-31T02:23:46;2.58;;;1.00;;
15256;SDS011;7731;50.720;6.912;2023-10-31T02:26:30;2.35;;;1.02;;
15256;SDS011;7731;50.720;6.912;2023-10-31T02:29:02;2.47;;;1.02;;
15256;SDS011;7731;50.720;6.912;2023-10-31T02:31:34;2.47;;;1.10;;
15256;SDS011;7731;50.720;6.912;2023-10-31T02:34:04;2.90;;;1.10;;
15256;SDS011;7731;50.720;6.912;2023-10-31T02:36:34;3.08;;;1.20;;
15256;SDS011;7731;50.720;6.912;2023-10-31T02:39:07;3.15;;;1.20;;
15256;SDS011;7731;50.720;6.912;2023-10-31T02:41:38;4.18;;;1.10;;
15256;SDS011;7731;50.720;6.912;2023-10-31T02:44:08;2.65;;;1.30;;
15256;SDS011;7731;50.720;6.912;2023-10-31T02:46:39;3.97;;;1.27;;
15256;SDS011;7731;50.720;6.912;2023-10-31T02:49:10;1.73;;;1.10;;
15256;SDS011;7731;50.720;6.912;2023-10-31T02:51:41;3.00;;;1.17;;
15256;SDS011;7731;50.720;6.912;2023-10-31T02:54:16;2.30;;;1.20;;
15256;SDS011;7731;50.720;6.912;2023-10-31T02:56:46;2.90;;;1.30;;
15256;SDS011;7731;50.720;6.912;2023-10-31T02:59:17;3.38;;;1.05;;
15256;SDS011;7731;50.720;6.912;2023-10-31T03:01:47;3.47;;;1.40;;
15256;SDS011;7731;50.720;6.912;2023-10-31T03:04:17;3.08;;;1.20;;
15256;SDS011;7731;50.720;6.912;2023-10-31T03:06:48;1.17;;;0.90;;
15256;SDS011;7731;50.720;6.912;2023-10-31T03:09:21;3.50;;;1.00;;
15256;SDS011;7731;50.720;6.912;2023-10-31T03:11:51;3.38;;;1.20;;
15256;SDS011;7731;50.720;6.912;2023-10-31T03:14:22;2.72;;;0.90;;
15256;SDS011;7731;50.720;6.912;2023-10-31T03:16:52;1.60;;;0.80;;
15256;SDS011;7731;50.720;6.912;2023-10-31T03:19:22;2.72;;;1.00;;
15256;SDS011;7731;50.720;6.912;2023-10-31T03:21:53;2.30;;;0.82;;
15256;SDS011;7731;50.720;6.912;2023-10-31T03:24:26;2.80;;;1.10;;
15256;SDS011;7731;50.720;6.912;2023-10-31T03:26:56;1.77;;;0.80;;
15256;SDS011;7731;50.720;6.912;2023-10-31T03:29:26;2.05;;;1.27;;
15256;SDS011;7731;50.720;6.912;2023-10-31T03:31:57;2.38;;;1.50;;
15256;SDS011;7731;50.720;6.912;2023-10-31T03:34:27;3.80;;;2.53;;
15256;SDS011;7731;50.720;6.912;2023-10-31T03:36:59;4.35;;;2.92;;
15256;SDS011;7731;50.720;6.912;2023-10-31T03:39:33;3.40;;;2.78;;
15256;SDS011;7731;50.720;6.912;2023-10-31T03:42:03;5.63;;;2.97;;
15256;SDS011;7731;50.720;6.912;2023-10-31T03:44:34;4.13;;;2.92;;
15256;SDS011;7731;50.720;6.912;2023-10-31T03:47:05;4.45;;;2.97;;
15256;SDS011;7731;50.720;6.912;2023-10-31T03:49:37;2.97;;;2.58;;
15256;SDS011;7731;50.720;6.912;2023-10-31T03:52:09;3.25;;;2.58;;
15256;SDS011;7731;50.720;6.912;2023-10-31T03:54:42;3.92;;;2.33;;
15256;SDS011;7731;50.720;6.912;2023-10-31T03:57:13;3.15;;;2.40;;
15256;SDS011;7731;50.720;6.912;2023-10-31T03:59:43;2.75;;;2.38;;
15256;SDS011;7731;50.720;6.912;2023-10-31T04:02:13;3.28;;;2.10;;
15256;SDS011;7731;50.720;6.912;2023-10-31T04:04:44;2.63;;;2.40;;
15256;SDS011;7731;50.720;6.912;2023-10-31T04:07:16;4.78;;;2.30;;
15256;SDS011;7731;50.720;6.912;2023-10-31T04:09:49;2.55;;;2.10;;
15256;SDS011;7731;50.720;6.912;2023-10-31T04:12:20;1.45;;;1.35;;
15256;SDS011;7731;50.720;6.912;2023-10-31T04:14:50;2.28;;;1.48;;
15256;SDS011;7731;50.720;6.912;2023-10-31T04:17:21;1.88;;;1.27;;
15256;SDS011;7731;50.720;6.912;2023-10-31T04:19:51;1.15;;;1.00;;
15256;SDS011;7731;50.720;6.912;2023-10-31T04:22:22;0.70;;;0.60;;
15256;SDS011;7731;50.720;6.912;2023-10-31T04:24:55;1.27;;;0.70;;
15256;SDS011;7731;50.720;6.912;2023-10-31T04:27:25;0.68;;;0.60;;
15256;SDS011;7731;50.720;6.912;2023-10-31T04:29:56;0.75;;;0.60;;
15256;SDS011;7731;50.720;6.912;2023-10-31T04:32:26;1.10;;;0.75;;
15256;SDS011;7731;50.720;6.912;2023-10-31T04:34:56;1.00;;;0.60;;
15256;SDS011;7731;50.720;6.912;2023-10-31T04:37:27;0.65;;;0.60;;
15256;SDS011;7731;50.720;6.912;2023-10-31T04:40:03;0.70;;;0.70;;
15256;SDS011;7731;50.720;6.912;2023-10-31T04:42:34;0.80;;;0.60;;
15256;SDS011;7731;50.720;6.912;2023-10-31T04:45:08;0.80;;;0.70;;
15256;SDS011;7731;50.720;6.912;2023-10-31T04:47:40;0.60;;;0.60;;
15256;SDS011;7731;50.720;6.912;2023-10-31T04:50:11;2.05;;;0.73;;
15256;SDS011;7731;50.720;6.912;2023-10-31T04:52:41;0.77;;;0.70;;
15256;SDS011;7731;50.720;6.912;2023-10-31T04:55:14;2.00;;;0.70;;
15256;SDS011;7731;50.720;6.912;2023-10-31T04:57:45;1.58;;;0.70;;
15256;SDS011;7731;50.720;6.912;2023-10-31T05:00:15;2.58;;;0.80;;
15256;SDS011;7731;50.720;6.912;2023-10-31T05:02:46;1.65;;;0.90;;
15256;SDS011;7731;50.720;6.912;2023-10-31T05:05:17;0.98;;;0.60;;
15256;SDS011;7731;50.720;6.912;2023-10-31T05:07:47;0.80;;;0.77;;
15256;SDS011;7731;50.720;6.912;2023-10-31T05:10:21;1.50;;;0.90;;
15256;SDS011;7731;50.720;6.912;2023-10-31T05:12:51;2.20;;;0.77;;
15256;SDS011;7731;50.720;6.912;2023-10-31T05:15:22;0.82;;;0.75;;
15256;SDS011;7731;50.720;6.912;2023-10-31T05:17:53;0.82;;;0.80;;
15256;SDS011;7731;50.720;6.912;2023-10-31T05:20:23;1.00;;;0.80;;
15256;SDS011;7731;50.720;6.912;2023-10-31T05:22:54;1.67;;;0.80;;
15256;SDS011;7731;50.720;6.912;2023-10-31T05:25:27;1.20;;;0.82;;
15256;SDS011;7731;50.720;6.912;2023-10-31T05:27:58;1.13;;;0.80;;
15256;SDS011;7731;50.720;6.912;2023-10-31T05:30:28;1.08;;;0.98;;
15256;SDS011;7731;50.720;6.912;2023-10-31T05:32:58;1.15;;;0.90;;
15256;SDS011;7731;50.720;6.912;2023-10-31T05:35:29;1.50;;;0.80;;
15256;SDS011;7731;50.720;6.912;2023-10-31T05:37:59;1.27;;;0.98;;
15256;SDS011;7731;50.720;6.912;2023-10-31T05:40:32;1.00;;;0.90;;
15256;SDS011;7731;50.720;6.912;2023-10-31T05:43:02;0.70;;;0.70;;
15256;SDS011;7731;50.720;6.912;2023-10-31T05:45:32;1.05;;;0.80;;
15256;SDS011;7731;50.720;6.912;2023-10-31T05:48:03;1.35;;;0.80;;
15256;SDS011;7731;50.720;6.912;2023-10-31T05:50:33;1.42;;;1.20;;
15256;SDS011;7731;50.720;6.912;2023-10-31T05:53:04;1.00;;;0.80;;
15256;SDS011;7731;50.720;6.912;2023-10-31T05:55:37;1.77;;;0.90;;
15256;SDS011;7731;50.720;6.912;2023-10-31T05:58:09;0.98;;;0.88;;
15256;SDS011;7731;50.720;6.912;2023-10-31T06:00:40;0.95;;;0.88;;
15256;SDS011;7731;50.720;6.912;2023-10-31T06:03:10;0.90;;;0.90;;
15256;SDS011;7731;50.720;6.912;2023-10-31T06:05:41;1.05;;;0.95;;
15256;SDS011;7731;50.720;6.912;2023-10-31T06:08:13;1.48;;;0.90;;
15256;SDS011;7731;50.720;6.912;2023-10-31T06:10:46;0.90;;;0.90;;
15256;SDS011;7731;50.720;6.912;2023-10-31T06:13:16;1.25;;;0.82;;
15256;SDS011;7731;50.720;6.912;2023-10-31T06:15:46;1.02;;;0.93;;
15256;SDS011;7731;50.720;6.912;2023-10-31T06:18:16;1.35;;;1.00;;
15256;SDS011;7731;50.720;6.912;2023-10-31T06:20:47;0.90;;;0.90;;
15256;SDS011;7731;50.720;6.912;2023-10-31T06:23:17;2.03;;;1.42;;
15256;SDS011;7731;50.720;6.912;2023-10-31T06:25:50;1.05;;;0.95;;
15256;SDS011;7731;50.720;6.912;2023-10-31T06:28:20;1.02;;;0.95;;
15256;SDS011;7731;50.720;6.912;2023-10-31T06:30:54;1.30;;;1.20;;
15256;SDS011;7731;50.720;6.912;2023-10-31T06:33:24;1.30;;;1.13;;
15256;SDS011;7731;50.720;6.912;2023-10-31T06:35:55;2.08;;;1.63;;
15256;SDS011;7731;50.720;6.912;2023-10-31T06:38:25;2.33;;;1.40;;
15256;SDS011;7731;50.720;6.912;2023-10-31T06:40:58;2.95;;;1.35;;
15256;SDS011;7731;50.720;6.912;2023-10-31T06:43:28;1.83;;;1.33;;
15256;SDS011;7731;50.720;6.912;2023-10-31T06:46:00;1.50;;;1.35;;
15256;SDS011;7731;50.720;6.912;2023-10-31T06:48:31;1.30;;;1.20;;
15256;SDS011;7731;50.720;6.912;2023-10-31T06:51:02;1.83;;;1.23;;
15256;SDS011;7731;50.720;6.912;2023-10-31T06:53:33;2.38;;;1.55;;
15256;SDS011;7731;50.720;6.912;2023-10-31T06:56:09;1.67;;;1.20;;
15256;SDS011;7731;50.720;6.912;2023-10-31T06:58:39;2.05;;;1.13;;
15256;SDS011;7731;50.720;6.912;2023-10-31T07:01:10;1.95;;;1.50;;
15256;SDS011;7731;50.720;6.912;2023-10-31T07:03:40;2.08;;;1.30;;
15256;SDS011;7731;50.720;6.912;2023-10-31T07:06:11;1.70;;;1.30;;
15256;SDS011;7731;50.720;6.912;2023-10-31T07:08:41;1.40;;;1.20;;
15256;SDS011;7731;50.720;6.912;2023-10-31T07:11:14;2.40;;;1.30;;
15256;SDS011;7731;50.720;6.912;2023-10-31T07:13:44;3.35;;;1.30;;
15256;SDS011;7731;50.720;6.912;2023-10-31T07:16:15;1.60;;;1.13;;
15256;SDS011;7731;50.720;6.912;2023-10-31T07:18:45;3.28;;;1.67;;
15256;SDS011;7731;50.720;6.912;2023-10-31T07:21:15;2.58;;;1.70;;
15256;SDS011;7731;50.720;6.912;2023-10-31T07:23:46;1.73;;;1.50;;
15256;SDS011;7731;50.720;6.912;2023-10-31T07:26:19;2.13;;;1.40;;
15256;SDS011;7731;50.720;6.912;2023-10-31T07:28:49;2.45;;;1.35;;
15256;SDS011;7731;50.720;6.912;2023-10-31T07:31:20;3.42;;;1.52;;
15256;SDS011;7731;50.720;6.912;2023-10-31T07:33:51;2.33;;;1.70;;
15256;SDS011;7731;50.720;6.912;2023-10-31T07:36:22;2.97;;;1.70;;
15256;SDS011;7731;50.720;6.912;2023-10-31T07:38:53;1.50;;;1.20;;
15256;SDS011;7731;50.720;6.912;2023-10-31T07:41:25;2.13;;;0.95;;
15256;SDS011;7731;50.720;6.912;2023-10-31T07:43:56;1.30;;;0.80;;
15256;SDS011;7731;50.720;6.912;2023-10-31T07:46:26;1.92;;;0.98;;
15256;SDS011;7731;50.720;6.912;2023-10-31T07:48:56;1.13;;;0.90;;
15256;SDS011;7731;50.720;6.912;2023-10-31T07:51:27;1.20;;;0.80;;
15256;SDS011;7731;50.720;6.912;2023-10-31T07:53:57;1.30;;;0.80;;
15256;SDS011;7731;50.720;6.912;2023-10-31T07:56:30;1.05;;;0.80;;
15256;SDS011;7731;50.720;6.912;2023-10-31T07:59:02;2.33;;;0.98;;
15256;SDS011;7731;50.720;6.912;2023-10-31T08:01:34;1.45;;;1.10;;
15256;SDS011;7731;50.720;6.912;2023-10-31T08:04:05;1.20;;;0.77;;
15256;SDS011;7731;50.720;6.912;2023-10-31T08:06:36;2.65;;;1.02;;
15256;SDS011;7731;50.720;6.912;2023-10-31T08:09:07;1.80;;;1.00;;
15256;SDS011;7731;50.720;6.912;2023-10-31T08:11:40;1.13;;;0.80;;
15256;SDS011;7731;50.720;6.912;2023-10-31T08:14:11;1.35;;;1.00;;
15256;SDS011;7731;50.720;6.912;2023-10-31T08:16:44;1.65;;;0.98;;
15256;SDS011;7731;50.720;6.912;2023-10-31T08:19:15;3.15;;;1.15;;
15256;SDS011;7731;50.720;6.912;2023-10-31T08:21:50;1.77;;;1.00;;
15256;SDS011;7731;50.720;6.912;2023-10-31T08:24:23;2.67;;;1.10;;
15256;SDS011;7731;50.720;6.912;2023-10-31T08:26:56;1.50;;;1.10;;
15256;SDS011;7731;50.720;6.912;2023-10-31T08:29:27;4.05;;;1.05;;
15256;SDS011;7731;50.720;6.912;2023-10-31T08:32:00;1.23;;;0.80;;
15256;SDS011;7731;50.720;6.912;2023-10-31T08:34:32;1.88;;;0.80;;
15256;SDS011;7731;50.720;6.912;2023-10-31T08:37:03;1.55;;;1.10;;
15256;SDS011;7731;50.720;6.912;2023-10-31T08:39:33;0.95;;;0.82;;
15256;SDS011;7731;50.720;6.912;2023-10-31T08:42:06;1.55;;;1.00;;
15256;SDS011;7731;50.720;6.912;2023-10-31T08:44:37;2.88;;;0.95;;
15256;SDS011;7731;50.720;6.912;2023-10-31T08:47:09;1.35;;;1.00;;
15256;SDS011;7731;50.720;6.912;2023-10-31T08:49:40;1.42;;;1.00;;
15256;SDS011;7731;50.720;6.912;2023-10-31T08:52:10;1.27;;;1.17;;
15256;SDS011;7731;50.720;6.912;2023-10-31T08:54:41;1.40;;;1.27;;
15256;SDS011;7731;50.720;6.912;2023-10-31T08:57:14;1.55;;;1.00;;
15256;SDS011;7731;50.720;6.912;2023-10-31T08:59:44;2.60;;;1.10;;
15256;SDS011;7731;50.720;6.912;2023-10-31T09:02:14;2.80;;;1.02;;
15256;SDS011;7731;50.720;6.912;2023-10-31T09:04:45;1.70;;;0.90;;
15256;SDS011;7731;50.720;6.912;2023-10-31T09:07:15;2.65;;;0.90;;
15256;SDS011;7731;50.720;6.912;2023-10-31T09:09:45;3.35;;;0.93;;
15256;SDS011;7731;50.720;6.912;2023-10-31T09:12:18;3.03;;;1.27;;
15256;SDS011;7731;50.720;6.912;2023-10-31T09:14:48;3.10;;;1.13;;
15256;SDS011;7731;50.720;6.912;2023-10-31T09:17:19;1.50;;;1.10;;
15256;SDS011;7731;50.720;6.912;2023-10-31T09:19:49;1.02;;;0.85;;
15256;SDS011;7731;50.720;6.912;2023-10-31T09:22:20;1.38;;;0.80;;
15256;SDS011;7731;50.720;6.912;2023-10-31T09:24:54;2.08;;;1.00;;
15256;SDS011;7731;50.720;6.912;2023-10-31T09:27:26;4.55;;;1.80;;
15256;SDS011;7731;50.720;6.912;2023-10-31T09:29:57;3.22;;;1.25;;
15256;SDS011;7731;50.720;6.912;2023-10-31T09:32:27;2.00;;;0.88;;
15256;SDS011;7731;50.720;6.912;2023-10-31T09:34:58;1.35;;;0.90;;
15256;SDS011;7731;50.720;6.912;2023-10-31T09:37:28;1.77;;;0.88;;
15256;SDS011;7731;50.720;6.912;2023-10-31T09:39:58;3.65;;;1.23;;
15256;SDS011;7731;50.720;6.912;2023-10-31T09:42:34;2.65;;;0.90;;
15256;SDS011;7731;50.720;6.912;2023-10-31T09:45:05;1.65;;;0.95;;
15256;SDS011;7731;50.720;6.912;2023-10-31T09:47:36;1.27;;;0.60;;
15256;SDS011;7731;50.720;6.912;2023-10-31T09:50:08;1.48;;;0.80;;
15256;SDS011;7731;50.720;6.912;2023-10-31T09:52:40;1.85;;;0.75;;
15256;SDS011;7731;50.720;6.912;2023-10-31T09:55:10;1.58;;;0.70;;
15256;SDS011;7731;50.720;6.912;2023-10-31T09:57:46;1.20;;;0.75;;
15256;SDS011;7731;50.720;6.912;2023-10-31T10:00:17;1.02;;;0.63;;
15256;SDS011;7731;50.720;6.912;2023-10-31T10:02:48;1.63;;;0.68;;
15256;SDS011;7731;50.720;6.912;2023-10-31T10:05:20;1.13;;;0.85;;
15256;SDS011;7731;50.720;6.912;2023-10-31T10:07:54;1.20;;;0.60;;
15256;SDS011;7731;50.720;6.912;2023-10-31T10:10:25;1.40;;;0.60;;
15256;SDS011;7731;50.720;6.912;2023-10-31T10:12:58;0.63;;;0.60;;
15256;SDS011;7731;50.720;6.912;2023-10-31T10:15:30;1.00;;;0.70;;
15256;SDS011;7731;50.720;6.912;2023-10-31T10:18:24;0.98;;;0.52;;
15256;SDS011;7731;50.720;6.912;2023-10-31T10:20:55;1.73;;;0.68;;
15256;SDS011;7731;50.720;6.912;2023-10-31T10:23:27;0.50;;;0.50;;
15256;SDS011;7731;50.720;6.912;2023-10-31T10:26:02;0.68;;;0.50;;
15256;SDS011;7731;50.720;6.912;2023-10-31T10:28:38;1.95;;;0.75;;
15256;SDS011;7731;50.720;6.912;2023-10-31T10:31:13;2.67;;;0.77;;
15256;SDS011;7731;50.720;6.912;2023-10-31T10:33:44;1.75;;;1.65;;
15256;SDS011;7731;50.720;6.912;2023-10-31T10:36:15;1.60;;;0.80;;
15256;SDS011;7731;50.720;6.912;2023-10-31T10:38:46;2.22;;;0.80;;
15256;SDS011;7731;50.720;6.912;2023-10-31T10:41:23;1.15;;;0.95;;
15256;SDS011;7731;50.720;6.912;2023-10-31T10:44:01;3.17;;;1.05;;
15256;SDS011;7731;50.720;6.912;2023-10-31T10:46:37;2.33;;;0.70;;
15256;SDS011;7731;50.720;6.912;2023-10-31T10:49:10;1.63;;;0.70;;
15256;SDS011;7731;50.720;6.912;2023-10-31T10:51:45;2.03;;;0.70;;
15256;SDS011;7731;50.720;6.912;2023-10-31T10:54:26;2.17;;;0.90;;
15256;SDS011;7731;50.720;6.912;2023-10-31T10:57:03;3.47;;;1.20;;
15256;SDS011;7731;50.720;6.912;2023-10-31T10:59:47;2.22;;;1.30;;
15256;SDS011;7731;50.720;6.912;2023-10-31T11:02:22;2.00;;;1.00;;
15256;SDS011;7731;50.720;6.912;2023-10-31T11:04:54;3.15;;;1.20;;
15256;SDS011;7731;50.720;6.912;2023-10-31T11:07:25;2.28;;;1.13;;
15256;SDS011;7731;50.720;6.912;2023-10-31T11:10:00;5.20;;;1.70;;
15256;SDS011;7731;50.720;6.912;2023-10-31T11:12:32;3.72;;;1.13;;
15256;SDS011;7731;50.720;6.912;2023-10-31T11:15:08;3.30;;;1.00;;
15256;SDS011;7731;50.720;6.912;2023-10-31T11:17:44;2.33;;;1.30;;
15256;SDS011;7731;50.720;6.912;2023-10-31T11:20:16;2.95;;;1.10;;
15256;SDS011;7731;50.720;6.912;2023-10-31T11:22:48;1.95;;;1.00;;
15256;SDS011;7731;50.720;6.912;2023-10-31T11:25:31;2.45;;;1.30;;
15256;SDS011;7731;50.720;6.912;2023-10-31T11:28:12;2.00;;;0.98;;
15256;SDS011;7731;50.720;6.912;2023-10-31T11:30:50;3.63;;;1.73;;
15256;SDS011;7731;50.720;6.912;2023-10-31T11:33:25;1.73;;;1.00;;
15256;SDS011;7731;50.720;6.912;2023-10-31T11:36:05;3.75;;;0.98;;
15256;SDS011;7731;50.720;6.912;2023-10-31T11:38:36;2.90;;;1.00;;
15256;SDS011;7731;50.720;6.912;2023-10-31T11:41:07;1.80;;;0.90;;
15256;SDS011;7731;50.720;6.912;2023-10-31T11:43:51;4.45;;;1.35;;
15256;SDS011;7731;50.720;6.912;2023-10-31T11:46:27;3.10;;;1.10;;
15256;SDS011;7731;50.720;6.912;2023-10-31T11:48:58;3.45;;;1.05;;
15256;SDS011;7731;50.720;6.912;2023-10-31T11:51:31;3.83;;;1.00;;
15256;SDS011;7731;50.720;6.912;2023-10-31T11:54:02;2.80;;;1.30;;
15256;SDS011;7731;50.720;6.912;2023-10-31T11:56:36;4.93;;;1.15;;
15256;SDS011;7731;50.720;6.912;2023-10-31T11:59:07;3.50;;;1.00;;
15256;SDS011;7731;50.720;6.912;2023-10-31T12:01:50;4.05;;;1.00;;
15256;SDS011;7731;50.720;6.912;2023-10-31T12:04:21;2.58;;;1.00;;
15256;SDS011;7731;50.720;6.912;2023-10-31T12:06:58;2.83;;;0.80;;
15256;SDS011;7731;50.720;6.912;2023-10-31T12:09:31;2.47;;;1.05;;
15256;SDS011;7731;50.720;6.912;2023-10-31T12:12:01;3.20;;;1.70;;
15256;SDS011;7731;50.720;6.912;2023-10-31T12:14:34;1.95;;;1.00;;
15256;SDS011;7731;50.720;6.912;2023-10-31T12:17:09;3.83;;;1.70;;
15256;SDS011;7731;50.720;6.912;2023-10-31T12:19:39;3.30;;;1.15;;
15256;SDS011;7731;50.720;6.912;2023-10-31T12:22:14;1.92;;;1.15;;
15256;SDS011;7731;50.720;6.912;2023-10-31T12:24:45;4.53;;;0.93;;
15256;SDS011;7731;50.720;6.912;2023-10-31T12:27:15;2.83;;;1.00;;
15256;SDS011;7731;50.720;6.912;2023-10-31T12:29:45;4.93;;;1.10;;
15256;SDS011;7731;50.720;6.912;2023-10-31T12:32:18;2.22;;;1.20;;
15256;SDS011;7731;50.720;6.912;2023-10-31T12:34:48;3.63;;;1.20;;
15256;SDS011;7731;50.720;6.912;2023-10-31T12:37:19;3.72;;;1.30;;
15256;SDS011;7731;50.720;6.912;2023-10-31T12:39:49;4.63;;;1.35;;
15256;SDS011;7731;50.720;6.912;2023-10-31T12:42:19;4.47;;;1.33;;
15256;SDS011;7731;50.720;6.912;2023-10-31T12:44:58;3.58;;;1.55;;
15256;SDS011;7731;50.720;6.912;2023-10-31T12:47:33;2.80;;;1.15;;
15256;SDS011;7731;50.720;6.912;2023-10-31T12:50:07;3.20;;;1.55;;
15256;SDS011;7731;50.720;6.912;2023-10-31T12:52:48;2.55;;;1.30;;
15256;SDS011;7731;50.720;6.912;2023-10-31T12:55:20;5.82;;;1.48;;
15256;SDS011;7731;50.720;6.912;2023-10-31T12:57:53;2.85;;;1.20;;
15256;SDS011;7731;50.720;6.912;2023-10-31T13:00:29;7.38;;;2.08;;
15256;SDS011;7731;50.720;6.912;2023-10-31T13:03:08;3.25;;;1.00;;
15256;SDS011;7731;50.720;6.912;2023-10-31T13:05:41;5.90;;;1.30;;
15256;SDS011;7731;50.720;6.912;2023-10-31T13:08:13;3.05;;;1.13;;
15256;SDS011;7731;50.720;6.912;2023-10-31T13:10:44;2.45;;;0.98;;
15256;SDS011;7731;50.720;6.912;2023-10-31T13:13:15;2.75;;;1.00;;
15256;SDS011;7731;50.720;6.912;2023-10-31T13:15:45;2.80;;;1.00;;
15256;SDS011;7731;50.720;6.912;2023-10-31T13:18:20;4.50;;;1.02;;
15256;SDS011;7731;50.720;6.912;2023-10-31T13:20:50;1.58;;;0.85;;
15256;SDS011;7731;50.720;6.912;2023-10-31T13:23:21;2.25;;;1.15;;
15256;SDS011;7731;50.720;6.912;2023-10-31T13:25:51;3.53;;;1.25;;
15256;SDS011;7731;50.720;6.912;2023-10-31T13:28:21;3.67;;;1.48;;
15256;SDS011;7731;50.720;6.912;2023-10-31T13:30:52;1.73;;;1.00;;
15256;SDS011;7731;50.720;6.912;2023-10-31T13:33:25;3.58;;;0.90;;
15256;SDS011;7731;50.720;6.912;2023-10-31T13:35:55;1.75;;;1.05;;
15256;SDS011;7731;50.720;6.912;2023-10-31T13:38:25;4.10;;;1.17;;
15256;SDS011;7731;50.720;6.912;2023-10-31T13:40:56;2.22;;;0.90;;
15256;SDS011;7731;50.720;6.912;2023-10-31T13:43:29;3.42;;;1.08;;
15256;SDS011;7731;50.720;6.912;2023-10-31T13:45:59;2.40;;;1.20;;
15256;SDS011;7731;50.720;6.912;2023-10-31T13:48:32;2.58;;;1.10;;
15256;SDS011;7731;50.720;6.912;2023-10-31T13:51:03;2.25;;;0.90;;
15256;SDS011;7731;50.720;6.912;2023-10-31T13:53:34;3.70;;;1.20;;
15256;SDS011;7731;50.720;6.912;2023-10-31T13:56:04;2.85;;;1.13;;
15256;SDS011;7731;50.720;6.912;2023-10-31T13:58:35;3.13;;;1.30;;
15256;SDS011;7731;50.720;6.912;2023-10-31T14:01:05;3.20;;;1.20;;
15256;SDS011;7731;50.720;6.912;2023-10-31T14:03:38;3.38;;;1.10;;
15256;SDS011;7731;50.720;6.912;2023-10-31T14:06:11;4.55;;;1.48;;
15256;SDS011;7731;50.720;6.912;2023-10-31T14:08:42;3.22;;;1.63;;
15256;SDS011;7731;50.720;6.912;2023-10-31T14:11:12;2.00;;;1.40;;
15256;SDS011;7731;50.720;6.912;2023-10-31T14:13:42;3.45;;;1.50;;
15256;SDS011;7731;50.720;6.912;2023-10-31T14:16:13;5.93;;;1.27;;
15256;SDS011;7731;50.720;6.912;2023-10-31T14:18:46;2.88;;;1.23;;
15256;SDS011;7731;50.720;6.912;2023-10-31T14:21:19;3.17;;;1.27;;
15256;SDS011;7731;50.720;6.912;2023-10-31T14:23:50;4.57;;;1.60;;
15256;SDS011;7731;50.720;6.912;2023-10-31T14:26:34;2.60;;;1.20;;
15256;SDS011;7731;50.720;6.912;2023-10-31T14:29:07;6.10;;;1.70;;
15256;SDS011;7731;50.720;6.912;2023-10-31T14:31:38;1.58;;;1.30;;
15256;SDS011;7731;50.720;6.912;2023-10-31T14:34:13;3.90;;;2.00;;
15256;SDS011;7731;50.720;6.912;2023-10-31T14:36:44;4.03;;;1.88;;
15256;SDS011;7731;50.720;6.912;2023-10-31T14:39:15;4.65;;;1.30;;
15256;SDS011;7731;50.720;6.912;2023-10-31T14:41:45;4.43;;;1.15;;
15256;SDS011;7731;50.720;6.912;2023-10-31T14:44:16;3.85;;;1.10;;
15256;SDS011;7731;50.720;6.912;2023-10-31T14:46:48;1.45;;;0.93;;
15256;SDS011;7731;50.720;6.912;2023-10-31T14:49:21;5.50;;;1.15;;
15256;SDS011;7731;50.720;6.912;2023-10-31T14:51:52;1.70;;;1.10;;
15256;SDS011;7731;50.720;6.912;2023-10-31T14:54:22;5.55;;;1.30;;
15256;SDS011;7731;50.720;6.912;2023-10-31T14:56:56;2.67;;;1.17;;
15256;SDS011;7731;50.720;6.912;2023-10-31T14:59:27;2.95;;;1.17;;
15256;SDS011;7731;50.720;6.912;2023-10-31T15:01:58;2.83;;;1.20;;
15256;SDS011;7731;50.720;6.912;2023-10-31T15:04:31;4.10;;;1.30;;
15256;SDS011;7731;50.720;6.912;2023-10-31T15:07:05;2.10;;;1.08;;
15256;SDS011;7731;50.720;6.912;2023-10-31T15:09:35;2.25;;;1.10;;
15256;SDS011;7731;50.720;6.912;2023-10-31T15:12:06;2.78;;;1.30;;
15256;SDS011;7731;50.720;6.912;2023-10-31T15:14:37;1.45;;;1.10;;
15256;SDS011;7731;50.720;6.912;2023-10-31T15:17:07;3.38;;;1.02;;
15256;SDS011;7731;50.720;6.912;2023-10-31T15:19:40;2.15;;;1.05;;
15256;SDS011;7731;50.720;6.912;2023-10-31T15:22:10;4.30;;;1.60;;
15256;SDS011;7731;50.720;6.912;2023-10-31T15:24:44;3.90;;;1.30;;
15256;SDS011;7731;50.720;6.912;2023-10-31T15:27:14;4.68;;;1.30;;
15256;SDS011;7731;50.720;6.912;2023-10-31T15:29:47;2.13;;;1.23;;
15256;SDS011;7731;50.720;6.912;2023-10-31T15:32:18;4.40;;;1.40;;